createdAt,value
2022-08-14T00:02:15.713Z,23.00
2022-08-14T00:04:44.999Z,22.90
2022-08-14T00:07:14.607Z,22.80
2022-08-14T00:09:55.934Z,22.90
2022-08-14T00:12:33.404Z,22.80
2022-08-14T00:15:15.108Z,23.00
2022-08-14T00:17:47.956Z,22.90
2022-08-14T00:20:23.895Z,23.00
2022-08-14T00:22:58.459Z,22.90
2022-08-14T00:25:41.474Z,23.00
2022-08-14T00:28:15.350Z,22.90
2022-08-14T00:30:45.920Z,23.00
2022-08-14T00:33:15.325Z,23.10
2022-08-14T00:36:37.372Z,22.90
2022-08-14T00:38:32.191Z,23.00
2022-08-14T00:41:04.590Z,22.80
2022-08-14T00:43:32.802Z,22.80
2022-08-14T00:46:08.028Z,23.00
2022-08-14T00:48:38.261Z,22.80
2022-08-14T00:51:08.919Z,22.80
2022-08-14T00:53:37.404Z,22.70
2022-08-14T00:56:08.498Z,22.90
2022-08-14T00:58:44.979Z,22.90
2022-08-14T01:01:14.478Z,22.70
2022-08-14T01:03:45.017Z,22.70
2022-08-14T01:06:16.779Z,22.70
2022-08-14T01:08:52.043Z,22.80
2022-08-14T01:11:35.534Z,22.80
2022-08-14T01:14:18.171Z,22.80
2022-08-14T01:16:53.119Z,22.70
2022-08-14T01:19:41.550Z,22.80
2022-08-14T01:22:12.523Z,22.60
2022-08-14T01:24:43.482Z,22.50
2022-08-14T01:27:15.962Z,22.50
2022-08-14T01:29:59.034Z,22.50
2022-08-14T01:32:31.699Z,22.60
2022-08-14T01:35:17.243Z,22.60
2022-08-14T01:37:56.656Z,22.50
2022-08-14T01:40:36.224Z,22.40
2022-08-14T01:43:18.794Z,22.30
2022-08-14T01:46:05.982Z,22.50
2022-08-14T01:48:37.118Z,22.30
2022-08-14T01:51:19.321Z,22.30
2022-08-14T01:53:54.953Z,22.40
2022-08-14T01:56:39.474Z,22.20
2022-08-14T01:59:18.289Z,22.30
2022-08-14T02:01:57.980Z,22.20
2022-08-14T02:04:54.519Z,22.20
2022-08-14T02:07:34.714Z,22.00
2022-08-14T02:10:08.702Z,22.00
2022-08-14T02:12:42.213Z,21.80
2022-08-14T02:15:10.573Z,21.70
2022-08-14T02:17:38.513Z,21.70
2022-08-14T02:20:08.363Z,21.80
2022-08-14T02:22:47.254Z,21.80
2022-08-14T02:25:16.828Z,21.60
2022-08-14T02:28:23.110Z,21.70
2022-08-14T02:30:33.653Z,21.70
2022-08-14T02:33:01.672Z,21.50
2022-08-14T02:35:32.717Z,21.70
2022-08-14T02:38:01.044Z,21.50
2022-08-14T02:40:34.166Z,21.50
2022-08-14T02:43:07.605Z,21.30
2022-08-14T02:45:38.766Z,21.20
2022-08-14T02:49:02.946Z,21.20
2022-08-14T02:51:02.443Z,21.30
2022-08-14T02:53:33.548Z,21.10
2022-08-14T02:56:04.663Z,21.10
2022-08-14T02:58:51.553Z,21.30
2022-08-14T03:01:26.135Z,21.30
2022-08-14T03:03:59.537Z,21.00
2022-08-14T03:06:34.970Z,21.00
2022-08-14T03:09:16.144Z,21.10
2022-08-14T03:11:44.859Z,20.90
2022-08-14T03:14:15.417Z,20.90
2022-08-14T03:16:49.387Z,20.80
2022-08-14T03:19:19.751Z,20.80
2022-08-14T03:21:52.799Z,20.80
2022-08-14T03:24:23.295Z,20.90
2022-08-14T03:26:57.388Z,20.70
2022-08-14T03:29:27.547Z,20.80
2022-08-14T03:31:57.240Z,20.80
2022-08-14T03:34:48.471Z,20.70
2022-08-14T03:37:50.962Z,20.80
2022-08-14T03:40:01.468Z,20.60
2022-08-14T03:42:35.904Z,20.70
2022-08-14T03:45:26.720Z,20.60
2022-08-14T03:47:56.301Z,20.40
2022-08-14T03:50:30.775Z,20.60
2022-08-14T03:53:00.440Z,20.40
2022-08-14T03:55:30.245Z,20.40
2022-08-14T03:58:00.479Z,20.30
2022-08-14T04:00:43.767Z,20.30
2022-08-14T04:03:18.201Z,20.40
2022-08-14T04:05:51.322Z,20.20
2022-08-14T04:08:28.956Z,20.30
2022-08-14T04:10:59.320Z,20.30
2022-08-14T04:13:31.823Z,20.20
2022-08-14T04:16:12.726Z,20.20
2022-08-14T04:18:45.211Z,20.20
2022-08-14T04:21:16.874Z,20.30
2022-08-14T04:23:57.367Z,20.10
2022-08-14T04:26:42.908Z,20.20
2022-08-14T04:29:16.352Z,20.00
2022-08-14T04:33:10.490Z,20.00
2022-08-14T04:34:33.812Z,20.10
2022-08-14T04:37:24.546Z,20.00
2022-08-14T04:40:11.228Z,20.10
2022-08-14T04:42:56.448Z,20.00
2022-08-14T04:45:24.749Z,20.10
2022-08-14T04:48:10.565Z,19.90
2022-08-14T04:50:53.834Z,20.00
2022-08-14T04:53:26.200Z,20.00
2022-08-14T04:56:02.575Z,19.90
2022-08-14T04:58:32.844Z,20.00
2022-08-14T05:01:02.069Z,19.80
2022-08-14T05:03:33.411Z,19.80
2022-08-14T05:06:03.789Z,20.00
2022-08-14T05:08:50.486Z,19.90
2022-08-14T05:11:22.917Z,19.80
2022-08-14T05:16:40.173Z,19.90
2022-08-14T05:19:18.320Z,19.90
2022-08-14T05:22:00.966Z,20.10
2022-08-14T05:24:42.911Z,20.10
2022-08-14T05:27:11.425Z,20.10
2022-08-14T05:29:39.038Z,20.00
2022-08-14T05:32:07.362Z,20.20
2022-08-14T05:34:35.020Z,20.10
2022-08-14T05:37:03.155Z,20.00
2022-08-14T05:39:32.007Z,20.20
2022-08-14T05:42:00.852Z,20.20
2022-08-14T05:44:37.370Z,20.30
2022-08-14T05:47:05.115Z,20.40
2022-08-14T05:49:34.379Z,20.40
2022-08-14T05:52:03.119Z,20.50
2022-08-14T05:54:37.475Z,20.30
2022-08-14T05:57:05.323Z,20.40
2022-08-14T05:59:38.985Z,20.50
2022-08-14T06:02:10.785Z,20.50
2022-08-14T06:04:39.873Z,20.60
2022-08-14T06:07:08.111Z,20.60
2022-08-14T06:09:40.733Z,20.60
2022-08-14T06:12:11.886Z,20.80
2022-08-14T06:14:39.768Z,20.90
2022-08-14T06:17:07.893Z,20.80
2022-08-14T06:19:35.520Z,20.90
2022-08-14T06:22:03.224Z,20.80
2022-08-14T06:24:34.843Z,20.90
2022-08-14T06:27:06.374Z,20.90
2022-08-14T06:29:38.775Z,21.00
2022-08-14T06:32:36.465Z,21.00
2022-08-14T06:35:11.182Z,21.20
2022-08-14T06:37:57.136Z,21.20
2022-08-14T06:40:27.984Z,21.10
2022-08-14T06:43:03.654Z,21.40
2022-08-14T06:45:42.003Z,21.50
2022-08-14T06:48:17.324Z,21.40
2022-08-14T06:50:45.997Z,21.40
2022-08-14T06:53:16.665Z,21.50
2022-08-14T06:55:57.803Z,21.70
2022-08-14T06:58:31.310Z,21.60
2022-08-14T07:01:23.049Z,21.70
2022-08-14T07:04:22.988Z,21.80
2022-08-14T07:06:55.636Z,21.90
2022-08-14T07:09:28.240Z,22.20
2022-08-14T07:12:09.390Z,22.10
2022-08-14T07:14:58.726Z,22.20
2022-08-14T07:17:29.359Z,22.50
2022-08-14T07:19:59.909Z,22.50
2022-08-14T07:22:32.667Z,22.60
2022-08-14T07:25:08.553Z,22.60
2022-08-14T07:27:36.539Z,22.90
2022-08-14T07:30:09.132Z,23.00
2022-08-14T07:32:57.308Z,23.00
2022-08-14T07:35:24.929Z,23.10
2022-08-14T07:37:58.200Z,23.40
2022-08-14T07:40:29.790Z,23.40
2022-08-14T07:42:57.804Z,23.60
2022-08-14T07:45:42.285Z,23.80
2022-08-14T07:48:14.836Z,23.90
2022-08-14T07:50:45.440Z,24.10
2022-08-14T07:53:16.713Z,24.30
2022-08-14T07:55:45.254Z,24.30
2022-08-14T07:58:33.932Z,24.30
2022-08-14T08:01:02.277Z,24.50
2022-08-14T08:03:33.268Z,24.60
2022-08-14T08:06:02.157Z,24.70
2022-08-14T08:08:38.113Z,24.80
2022-08-14T08:11:14.721Z,24.90
2022-08-14T08:13:49.034Z,25.10
2022-08-14T08:16:24.085Z,25.10
2022-08-14T08:18:55.090Z,25.20
2022-08-14T08:21:33.143Z,25.20
2022-08-14T08:24:03.622Z,25.40
2022-08-14T08:26:31.831Z,25.40
2022-08-14T08:29:00.938Z,25.60
2022-08-14T08:31:32.556Z,25.40
2022-08-14T08:34:05.667Z,25.40
2022-08-14T08:36:41.467Z,25.60
2022-08-14T08:39:16.567Z,25.40
2022-08-14T08:41:53.644Z,25.40
2022-08-14T08:44:32.034Z,25.50
2022-08-14T08:47:07.605Z,25.50
2022-08-14T08:49:52.876Z,25.60
2022-08-14T08:52:30.917Z,25.90
2022-08-14T08:55:00.970Z,25.90
2022-08-14T08:57:35.732Z,25.80
2022-08-14T09:00:24.312Z,25.80
2022-08-14T09:02:57.263Z,25.80
2022-08-14T09:05:25.215Z,25.90
2022-08-14T09:07:56.515Z,26.10
2022-08-14T09:10:27.265Z,25.90
2022-08-14T09:12:56.037Z,26.00
2022-08-14T09:15:24.341Z,26.30
2022-08-14T09:17:54.573Z,26.20
2022-08-14T09:20:27.480Z,26.40
2022-08-14T09:22:57.487Z,26.40
2022-08-14T09:26:00.722Z,26.40
2022-08-14T09:28:13.688Z,26.60
2022-08-14T09:30:44.029Z,26.70
2022-08-14T09:33:32.269Z,27.10
2022-08-14T09:36:12.742Z,27.20
2022-08-14T09:38:44.416Z,27.20
2022-08-14T09:42:21.469Z,27.50
2022-08-14T09:44:45.925Z,27.50
2022-08-14T09:47:17.759Z,27.90
2022-08-14T09:49:52.161Z,27.60
2022-08-14T09:52:33.069Z,27.70
2022-08-14T09:55:04.705Z,28.10
2022-08-14T09:57:33.397Z,28.20
2022-08-14T10:00:11.976Z,28.10
2022-08-14T10:03:05.922Z,28.30
2022-08-14T10:05:39.105Z,28.10
2022-08-14T10:08:17.714Z,28.30
2022-08-14T10:10:57.197Z,28.50
2022-08-14T10:13:43.286Z,28.50
2022-08-14T10:16:21.136Z,28.80
2022-08-14T10:18:52.317Z,28.80
2022-08-14T10:21:19.980Z,28.80
2022-08-14T10:23:52.668Z,28.80
2022-08-14T10:26:22.615Z,29.10
2022-08-14T10:29:18.934Z,29.20
2022-08-14T10:31:44.891Z,29.20
2022-08-14T10:34:14.537Z,29.40
2022-08-14T10:36:47.764Z,29.40
2022-08-14T10:39:20.630Z,29.70
2022-08-14T10:41:53.961Z,29.90
2022-08-14T10:44:24.883Z,30.10
2022-08-14T10:47:40.378Z,30.40
2022-08-14T10:50:00.331Z,30.50
2022-08-14T10:52:31.629Z,30.60
2022-08-14T10:55:09.570Z,31.00
2022-08-14T10:57:51.489Z,30.90
2022-08-14T11:00:30.445Z,30.80
2022-08-14T11:03:07.760Z,31.00
2022-08-14T11:05:54.957Z,31.00
2022-08-14T11:08:34.366Z,31.40
2022-08-14T11:11:05.508Z,31.50
2022-08-14T11:13:33.336Z,31.50
2022-08-14T11:16:02.651Z,31.50
2022-08-14T11:18:36.825Z,31.90
2022-08-14T11:21:09.416Z,31.70
2022-08-14T11:23:41.296Z,31.80
2022-08-14T11:26:12.122Z,31.90
2022-08-14T11:28:47.116Z,32.10
2022-08-14T11:31:21.963Z,32.10
2022-08-14T11:33:57.240Z,32.30
2022-08-14T11:36:56.986Z,32.20
2022-08-14T11:39:33.882Z,32.50
2022-08-14T11:42:55.403Z,32.60
2022-08-14T11:45:00.930Z,32.70
2022-08-14T11:47:35.187Z,32.60
2022-08-14T11:50:33.528Z,32.60
2022-08-14T11:53:04.407Z,32.70
2022-08-14T11:55:38.449Z,32.70
2022-08-14T11:58:08.646Z,32.80
2022-08-14T12:00:47.016Z,32.90
2022-08-14T12:03:17.816Z,32.80
2022-08-14T12:05:50.411Z,32.90
2022-08-14T12:08:24.677Z,32.70
2022-08-14T12:11:00.797Z,32.80
2022-08-14T12:13:32.197Z,32.90
2022-08-14T12:16:06.239Z,33.10
2022-08-14T12:18:40.664Z,33.20
2022-08-14T12:21:19.325Z,33.30
2022-08-14T12:24:02.007Z,33.20
2022-08-14T12:26:40.119Z,33.50
2022-08-14T12:29:14.286Z,33.50
2022-08-14T12:31:44.911Z,33.30
2022-08-14T12:34:20.709Z,33.60
2022-08-14T12:37:03.134Z,33.70
2022-08-14T12:39:30.780Z,33.70
2022-08-14T12:42:09.114Z,34.00
2022-08-14T12:44:42.794Z,34.00
2022-08-14T12:47:17.013Z,34.20
2022-08-14T12:49:52.236Z,33.80
2022-08-14T12:52:45.405Z,33.80
2022-08-14T12:55:32.705Z,33.90
2022-08-14T12:58:35.518Z,34.10
2022-08-14T13:01:17.271Z,34.30
2022-08-14T13:03:48.256Z,34.20
2022-08-14T13:06:20.349Z,34.30
2022-08-14T13:08:52.935Z,34.10
2022-08-14T13:11:23.762Z,34.00
2022-08-14T13:13:57.039Z,34.00
2022-08-14T13:16:38.124Z,34.00
2022-08-14T13:19:11.240Z,34.10
2022-08-14T13:21:59.070Z,34.30
2022-08-14T13:24:28.683Z,34.20
2022-08-14T13:27:04.153Z,34.30
2022-08-14T13:29:37.839Z,33.90
2022-08-14T13:32:09.129Z,34.00
2022-08-14T13:34:37.709Z,34.00
2022-08-14T13:37:07.187Z,34.00
2022-08-14T13:39:36.671Z,33.60
2022-08-14T13:42:08.773Z,33.50
2022-08-14T13:44:43.096Z,33.40
2022-08-14T13:47:14.630Z,33.60
2022-08-14T13:49:57.744Z,33.50
2022-08-14T13:52:51.469Z,33.60
2022-08-14T13:55:16.877Z,33.80
2022-08-14T13:57:49.869Z,33.80
2022-08-14T14:00:51.616Z,33.70
2022-08-14T14:03:21.968Z,33.90
2022-08-14T14:05:55.370Z,33.80
2022-08-14T14:08:43.398Z,34.00
2022-08-14T14:11:13.510Z,33.90
2022-08-14T14:13:45.359Z,34.00
2022-08-14T14:16:15.306Z,33.80
2022-08-14T14:18:55.749Z,33.80
2022-08-14T14:21:28.678Z,33.90
2022-08-14T14:23:57.119Z,33.50
2022-08-14T14:26:25.677Z,33.60
2022-08-14T14:28:56.389Z,33.50
2022-08-14T14:31:29.740Z,33.50
2022-08-14T14:33:59.838Z,33.30
2022-08-14T14:36:29.386Z,33.50
2022-08-14T14:38:57.009Z,33.40
2022-08-14T14:41:26.607Z,33.10
2022-08-14T14:44:06.998Z,33.20
2022-08-14T14:46:38.096Z,33.10
2022-08-14T14:49:14.072Z,33.10
2022-08-14T14:51:43.631Z,32.80
2022-08-14T14:54:13.203Z,32.90
2022-08-14T14:56:49.894Z,32.80
2022-08-14T14:59:20.028Z,32.70
2022-08-14T15:01:51.801Z,32.80
2022-08-14T15:04:20.763Z,32.80
2022-08-14T15:06:49.832Z,32.80
2022-08-14T15:09:18.414Z,32.80
2022-08-14T15:11:47.983Z,32.60
2022-08-14T15:14:54.585Z,32.60
2022-08-14T15:17:03.624Z,32.70
2022-08-14T15:19:33.634Z,32.50
2022-08-14T15:22:02.002Z,32.60
2022-08-14T15:24:29.640Z,32.60
2022-08-14T15:26:59.720Z,32.40
2022-08-14T15:29:27.988Z,32.30
2022-08-14T15:31:55.784Z,32.30
2022-08-14T15:34:43.850Z,32.10
2022-08-14T15:37:12.962Z,32.10
2022-08-14T15:39:44.641Z,32.10
2022-08-14T15:42:14.692Z,32.00
2022-08-14T15:44:56.827Z,32.00
2022-08-14T15:47:28.429Z,31.80
2022-08-14T15:49:59.675Z,31.90
2022-08-14T15:52:44.858Z,32.00
2022-08-14T15:55:14.646Z,31.70
2022-08-14T15:58:01.418Z,31.60
2022-08-14T16:00:49.409Z,31.80
2022-08-14T16:03:18.419Z,31.60
2022-08-14T16:05:56.426Z,31.50
2022-08-14T16:08:28.943Z,31.60
2022-08-14T16:11:01.666Z,31.50
2022-08-14T16:13:41.102Z,31.60
2022-08-14T16:16:34.344Z,31.60
2022-08-14T16:19:07.281Z,31.40
2022-08-14T16:21:35.550Z,31.30
2022-08-14T16:24:05.724Z,31.40
2022-08-14T16:26:34.795Z,31.30
2022-08-14T16:29:07.875Z,31.20
2022-08-14T16:31:37.331Z,31.40
2022-08-14T16:34:44.133Z,31.10
2022-08-14T16:36:59.828Z,31.20
2022-08-14T16:39:28.613Z,31.20
2022-08-14T16:41:58.888Z,30.90
2022-08-14T16:44:31.886Z,30.90
2022-08-14T16:47:03.743Z,30.80
2022-08-14T16:49:35.385Z,30.90
2022-08-14T16:52:26.412Z,30.80
2022-08-14T16:55:09.458Z,30.90
2022-08-14T16:57:55.343Z,30.70
2022-08-14T17:00:44.194Z,30.70
2022-08-14T17:03:17.676Z,30.70
2022-08-14T17:05:47.134Z,30.80
2022-08-14T17:08:32.613Z,30.40
2022-08-14T17:11:12.599Z,30.70
2022-08-14T17:13:57.759Z,30.60
2022-08-14T17:16:30.073Z,30.40
2022-08-14T17:19:01.765Z,30.30
2022-08-14T17:21:37.666Z,30.30
2022-08-14T17:24:56.282Z,30.40
2022-08-14T17:26:55.924Z,30.50
2022-08-14T17:29:29.362Z,30.20
2022-08-14T17:32:22.066Z,30.20
2022-08-14T17:34:57.944Z,30.10
2022-08-14T17:37:37.737Z,30.00
2022-08-14T17:40:15.295Z,30.00
2022-08-14T17:45:41.569Z,30.10
2022-08-14T17:49:15.673Z,29.90
2022-08-14T17:51:23.925Z,30.10
2022-08-14T17:54:02.694Z,30.10
2022-08-14T17:56:36.171Z,29.90
2022-08-14T17:59:07.115Z,29.80
2022-08-14T18:01:37.802Z,29.80
2022-08-14T18:04:27.787Z,29.70
2022-08-14T18:07:08.712Z,29.90
2022-08-14T18:09:56.269Z,29.70
2022-08-14T18:12:32.471Z,29.60
2022-08-14T18:15:35.435Z,29.80
2022-08-14T18:18:06.767Z,29.60
2022-08-14T18:21:40.116Z,29.50
2022-08-14T18:23:24.929Z,29.40
2022-08-14T18:25:54.512Z,29.40
2022-08-14T18:28:49.014Z,29.60
2022-08-14T18:31:16.055Z,29.40
2022-08-14T18:33:52.984Z,29.30
2022-08-14T18:36:46.518Z,29.20
2022-08-14T18:39:23.936Z,29.10
2022-08-14T18:41:52.491Z,29.10
2022-08-14T18:44:39.241Z,29.00
2022-08-14T18:47:10.110Z,29.20
2022-08-14T18:49:55.308Z,29.00
2022-08-14T18:52:35.265Z,28.80
2022-08-14T18:55:21.625Z,28.90
2022-08-14T18:57:58.327Z,28.80
2022-08-14T19:00:33.121Z,28.70
2022-08-14T19:03:01.828Z,28.70
2022-08-14T19:05:39.183Z,28.60
2022-08-14T19:08:22.093Z,28.60
2022-08-14T19:10:53.057Z,28.50
2022-08-14T19:13:48.421Z,28.30
2022-08-14T19:16:26.433Z,28.30
2022-08-14T19:19:00.306Z,28.30
2022-08-14T19:21:33.136Z,28.00
2022-08-14T19:24:27.603Z,28.20
2022-08-14T19:27:19.092Z,27.90
2022-08-14T19:29:51.245Z,27.90
2022-08-14T19:32:40.351Z,28.00
2022-08-14T19:35:48.643Z,27.90
2022-08-14T19:38:36.078Z,27.70
2022-08-14T19:41:15.511Z,27.90
2022-08-14T19:43:55.042Z,27.70
2022-08-14T19:46:39.419Z,27.80
2022-08-14T19:49:14.532Z,27.70
2022-08-14T19:51:49.496Z,27.60
2022-08-14T19:54:17.152Z,27.80
2022-08-14T19:56:46.084Z,27.60
2022-08-14T19:59:19.992Z,27.50
2022-08-14T20:01:51.470Z,27.40
2022-08-14T20:04:46.312Z,27.60
2022-08-14T20:07:59.054Z,27.30
2022-08-14T20:11:12.506Z,27.40
2022-08-14T20:13:24.958Z,27.20
2022-08-14T20:16:02.628Z,27.30
2022-08-14T20:18:49.855Z,27.10
2022-08-14T20:21:19.806Z,27.10
2022-08-14T20:23:49.440Z,27.30
2022-08-14T20:26:31.381Z,27.20
2022-08-14T20:29:04.588Z,27.00
2022-08-14T20:31:37.327Z,27.10
2022-08-14T20:34:18.627Z,27.00
2022-08-14T20:37:11.588Z,27.10
2022-08-14T20:39:40.478Z,26.90
2022-08-14T20:42:30.337Z,27.00
2022-08-14T20:45:19.726Z,26.90
2022-08-14T20:47:58.440Z,27.10
2022-08-14T20:50:29.576Z,26.80
2022-08-14T20:53:06.181Z,26.80
2022-08-14T20:55:41.765Z,26.80
2022-08-14T20:58:38.161Z,26.90
2022-08-14T21:01:34.866Z,26.70
2022-08-14T21:04:05.093Z,26.70
2022-08-14T21:07:23.292Z,26.70
2022-08-14T21:10:03.292Z,26.40
2022-08-14T21:12:33.898Z,26.60
2022-08-14T21:15:03.976Z,26.60
2022-08-14T21:17:37.447Z,26.60
2022-08-14T21:20:25.918Z,26.30
2022-08-14T21:22:56.430Z,26.40
2022-08-14T21:25:24.882Z,26.20
2022-08-14T21:27:59.059Z,26.30
2022-08-14T21:30:46.515Z,26.20
2022-08-14T21:33:16.058Z,26.10
2022-08-14T21:35:45.484Z,26.00
2022-08-14T21:38:18.146Z,26.00
2022-08-14T21:40:50.433Z,26.00
2022-08-14T21:43:20.807Z,25.90
2022-08-14T21:45:53.225Z,25.90
2022-08-14T21:48:22.899Z,26.00
2022-08-14T21:51:02.158Z,25.80
2022-08-14T21:53:58.773Z,26.10
2022-08-14T21:56:37.606Z,25.80
2022-08-14T21:59:09.229Z,25.90
2022-08-14T22:02:00.627Z,26.00
2022-08-14T22:04:34.048Z,26.00
2022-08-14T22:07:05.346Z,25.70
2022-08-14T22:09:36.604Z,25.70
2022-08-14T22:12:06.760Z,25.70
2022-08-14T22:14:43.674Z,25.60
2022-08-14T22:17:16.332Z,25.90
2022-08-14T22:19:47.364Z,25.60
2022-08-14T22:22:26.395Z,25.60
2022-08-14T22:25:00.100Z,25.60
2022-08-14T22:27:29.489Z,25.70
2022-08-14T22:29:58.437Z,25.40
2022-08-14T22:32:56.296Z,25.50
2022-08-14T22:35:15.558Z,25.40
2022-08-14T22:37:44.603Z,25.30
2022-08-14T22:40:46.084Z,25.30
2022-08-14T22:43:08.037Z,25.20
2022-08-14T22:45:37.738Z,25.20
2022-08-14T22:48:10.771Z,25.20
2022-08-14T22:50:49.219Z,25.20
2022-08-14T22:53:22.134Z,25.20
2022-08-14T22:55:52.126Z,25.30
2022-08-14T22:58:27.494Z,25.10
2022-08-14T23:01:01.217Z,25.20
2022-08-14T23:03:31.091Z,25.10
2022-08-14T23:06:03.066Z,25.00
2022-08-14T23:09:01.847Z,25.20
2022-08-14T23:11:38.266Z,25.00
2022-08-14T23:14:06.768Z,25.00
2022-08-14T23:16:40.323Z,25.00
2022-08-14T23:19:11.497Z,25.00
2022-08-14T23:21:46.209Z,24.80
2022-08-14T23:24:15.903Z,24.90
2022-08-14T23:26:48.551Z,24.90
2022-08-14T23:29:20.194Z,24.70
2022-08-14T23:31:49.677Z,24.60
2022-08-14T23:34:21.299Z,24.50
2022-08-14T23:36:54.267Z,24.70
2022-08-14T23:39:30.156Z,24.50
2022-08-14T23:42:02.448Z,24.50
2022-08-14T23:44:35.303Z,24.50
2022-08-14T23:47:11.522Z,24.40
2022-08-14T23:49:59.836Z,24.40
2022-08-14T23:52:55.760Z,24.30
2022-08-14T23:55:23.133Z,24.30
2022-08-14T23:57:57.603Z,24.40
